Time;durP1;ratioP1;P1;durP2;ratioP2;P2;SDS_P1;SDS_P2;PMS_P1;PMS_P2;Temp;Humidity;BMP_temperature;BMP_pressure;BME280_temperature;BME280_humidity;BME280_pressure;Samples;Min_cycle;Max_cycle;Signal;HPM_P1;HPM_P2
2021/05/02 00:01:32;;;;;;;22.25;9.93;;;8.60;99.90;;;;;;5016557;28;20041;-77
2021/05/02 00:03:58;;;;;;;23.92;9.32;;;8.60;99.90;;;;;;5023962;28;20037;-78
2021/05/02 00:06:24;;;;;;;18.30;10.02;;;8.60;99.90;;;;;;5026064;28;20030;-78
2021/05/02 00:08:49;;;;;;;20.58;9.13;;;8.60;99.90;;;;;;5027069;28;20040;-78
2021/05/02 00:11:14;;;;;;;18.67;9.25;;;8.60;99.90;;;;;;5020861;28;20427;-77
2021/05/02 00:13:41;;;;;;;23.42;9.88;;;8.60;99.90;;;;;;5017858;28;20040;-77
2021/05/02 00:16:06;;;;;;;18.20;9.73;;;8.60;99.90;;;;;;5026370;28;20041;-77
2021/05/02 00:18:34;;;;;;;23.98;10.00;;;8.60;99.90;;;;;;5020312;28;20414;-78
2021/05/02 00:21:00;;;;;;;19.67;9.55;;;8.60;99.90;;;;;;5030463;28;20038;-78
2021/05/02 00:23:26;;;;;;;19.30;9.50;;;8.60;99.90;;;;;;5014294;28;20049;-78
2021/05/02 00:25:51;;;;;;;20.92;10.00;;;8.60;99.90;;;;;;5027535;28;20025;-78
2021/05/02 00:28:18;;;;;;;18.30;8.63;;;8.60;99.90;;;;;;5019038;28;20033;-77
2021/05/02 00:30:44;;;;;;;18.95;9.50;;;8.60;99.90;;;;;;5020915;28;20034;-78
2021/05/02 00:33:12;;;;;;;19.63;8.95;;;8.60;99.90;;;;;;5020068;28;20065;-78
2021/05/02 00:35:38;;;;;;;18.77;9.35;;;8.60;99.90;;;;;;5020747;28;20323;-78
2021/05/02 00:38:03;;;;;;;28.95;11.05;;;8.60;99.90;;;;;;5020819;28;20064;-77
2021/05/02 00:40:40;;;;;;;18.25;9.25;;;8.60;99.90;;;;;;5030245;28;20049;-77
2021/05/02 00:43:08;;;;;;;20.63;10.48;;;8.50;99.90;;;;;;5012866;28;20555;-78
2021/05/02 00:46:07;;;;;;;20.88;9.75;;;8.60;99.90;;;;;;5017715;28;20040;-77
2021/05/02 00:48:36;;;;;;;22.02;9.88;;;8.60;99.90;;;;;;5012735;28;20056;-78
2021/05/02 00:51:06;;;;;;;17.13;8.63;;;8.60;99.90;;;;;;5018926;28;20514;-77
2021/05/02 00:53:54;;;;;;;17.67;7.97;;;8.60;99.90;;;;;;5022259;28;20513;-77
2021/05/02 00:56:29;;;;;;;17.88;8.73;;;8.50;99.90;;;;;;5015396;28;20057;-78
2021/05/02 00:59:06;;;;;;;18.80;9.10;;;8.40;99.90;;;;;;5022919;28;20523;-78
2021/05/02 01:01:44;;;;;;;20.00;8.45;;;8.40;99.90;;;;;;5021540;28;20030;-77
2021/05/02 01:04:11;;;;;;;18.80;8.90;;;8.40;99.90;;;;;;5029840;28;20057;-78
2021/05/02 01:06:40;;;;;;;19.92;9.40;;;8.40;99.90;;;;;;5015321;28;20396;-78
2021/05/02 01:09:08;;;;;;;19.02;8.45;;;8.50;99.90;;;;;;5023203;28;20034;-78
2021/05/02 01:11:37;;;;;;;19.77;9.15;;;8.40;99.90;;;;;;5019518;28;20457;-78
2021/05/02 01:14:03;;;;;;;16.13;8.38;;;8.50;99.90;;;;;;5019204;28;20022;-78
2021/05/02 01:16:33;;;;;;;21.15;9.70;;;8.40;99.90;;;;;;5023775;28;20022;-78
2021/05/02 01:19:02;;;;;;;20.00;9.48;;;8.50;99.90;;;;;;5016048;28;20037;-77
2021/05/02 01:21:30;;;;;;;18.05;8.18;;;8.50;99.90;;;;;;5022728;28;20034;-78
2021/05/02 01:23:58;;;;;;;20.25;9.23;;;8.50;99.90;;;;;;5028822;28;20504;-78
2021/05/02 01:26:25;;;;;;;17.77;8.50;;;8.50;99.90;;;;;;5027868;28;20033;-78
2021/05/02 01:28:53;;;;;;;21.05;8.82;;;8.50;99.90;;;;;;5018908;28;20113;-77
2021/05/02 01:31:22;;;;;;;16.13;8.00;;;8.40;99.90;;;;;;5014157;28;20030;-78
2021/05/02 01:33:48;;;;;;;18.05;8.75;;;8.40;99.90;;;;;;5016415;28;20450;-78
2021/05/02 01:36:14;;;;;;;17.17;8.85;;;8.40;99.90;;;;;;5016216;28;20018;-77
2021/05/02 01:38:41;;;;;;;18.88;8.35;;;8.40;99.90;;;;;;5011772;28;20029;-77
2021/05/02 01:41:07;;;;;;;18.10;8.82;;;8.40;99.90;;;;;;5015790;28;20033;-78
2021/05/02 01:43:32;;;;;;;28.58;9.20;;;8.40;99.90;;;;;;5024328;28;20034;-77
2021/05/02 01:45:58;;;;;;;23.80;9.13;;;8.40;99.90;;;;;;5020649;28;20488;-77
2021/05/02 01:48:27;;;;;;;19.85;8.57;;;8.40;99.90;;;;;;5011417;28;20582;-78
2021/05/02 01:51:04;;;;;;;17.40;8.07;;;8.40;99.90;;;;;;5011569;28;20512;-77
2021/05/02 01:53:31;;;;;;;18.17;8.65;;;8.40;99.90;;;;;;5014317;28;20025;-77
2021/05/02 01:56:00;;;;;;;19.10;9.73;;;8.30;99.90;;;;;;5005986;28;20033;-78
2021/05/02 01:58:26;;;;;;;19.17;8.98;;;8.30;99.90;;;;;;5019618;28;20075;-77
2021/05/02 02:00:58;;;;;;;25.65;9.98;;;8.30;99.90;;;;;;5023413;28;20036;-77
2021/05/02 02:03:24;;;;;;;19.08;9.63;;;8.30;99.90;;;;;;5014952;28;20488;-77
2021/05/02 02:05:50;;;;;;;18.10;9.73;;;8.30;99.90;;;;;;5023542;28;20032;-77
2021/05/02 02:08:17;;;;;;;21.60;9.65;;;8.30;99.90;;;;;;5029215;28;20415;-78
2021/05/02 02:10:45;;;;;;;21.65;10.43;;;8.30;99.90;;;;;;5025363;28;20037;-77
2021/05/02 02:13:12;;;;;;;24.90;9.85;;;8.40;99.90;;;;;;5022441;28;20029;-77
2021/05/02 02:15:38;;;;;;;19.42;9.50;;;8.40;99.90;;;;;;5016751;28;20038;-77
2021/05/02 02:18:05;;;;;;;23.48;10.32;;;8.40;99.90;;;;;;5012120;28;20076;-77
2021/05/02 02:20:36;;;;;;;21.52;10.15;;;8.40;99.90;;;;;;5011947;28;20032;-77
2021/05/02 02:23:12;;;;;;;22.38;10.43;;;8.40;99.90;;;;;;5029002;28;20306;-77
2021/05/02 02:25:41;;;;;;;23.10;10.38;;;8.40;99.90;;;;;;5017164;28;20045;-77
2021/05/02 02:28:14;;;;;;;20.80;10.82;;;8.40;99.90;;;;;;5015204;28;20416;-77
2021/05/02 02:30:47;;;;;;;23.23;10.57;;;8.40;99.90;;;;;;5019198;28;20034;-78
2021/05/02 02:33:14;;;;;;;23.23;9.75;;;8.40;99.90;;;;;;5020541;28;20116;-77
2021/05/02 02:35:48;;;;;;;23.13;10.50;;;8.40;99.90;;;;;;5023593;28;20026;-77
2021/05/02 02:38:17;;;;;;;23.63;10.27;;;8.40;99.90;;;;;;5019774;28;20025;-77
2021/05/02 02:40:46;;;;;;;18.50;9.55;;;8.40;99.90;;;;;;5012744;28;20060;-77
2021/05/02 02:43:18;;;;;;;21.92;8.80;;;8.40;99.90;;;;;;5016011;28;20034;-77
2021/05/02 02:45:46;;;;;;;23.65;9.30;;;8.40;99.90;;;;;;5011050;28;20112;-77
2021/05/02 02:48:15;;;;;;;18.13;9.43;;;8.40;99.90;;;;;;5020010;28;20029;-77
2021/05/02 02:50:44;;;;;;;20.42;9.65;;;8.40;99.90;;;;;;5023259;28;20136;-77
2021/05/02 02:53:11;;;;;;;22.05;10.60;;;8.40;99.90;;;;;;5021790;28;20033;-77
2021/05/02 02:55:38;;;;;;;25.42;10.68;;;8.40;99.90;;;;;;5010932;28;20026;-78
2021/05/02 02:58:05;;;;;;;21.40;9.88;;;8.40;99.90;;;;;;5023425;28;20060;-78
2021/05/02 03:00:32;;;;;;;22.90;9.90;;;8.40;99.90;;;;;;5025365;28;20135;-78
2021/05/02 03:03:14;;;;;;;20.10;9.60;;;8.40;99.90;;;;;;5017672;28;20025;-78
2021/05/02 03:05:41;;;;;;;20.20;9.77;;;8.40;99.90;;;;;;5010501;28;20033;-77
2021/05/02 03:08:10;;;;;;;27.50;11.68;;;8.40;99.90;;;;;;5014826;28;20148;-78
2021/05/02 03:10:39;;;;;;;22.40;11.40;;;8.40;99.90;;;;;;5020842;28;20033;-77
2021/05/02 03:13:05;;;;;;;25.10;9.80;;;8.30;99.90;;;;;;5014112;28;20026;-77
2021/05/02 03:15:31;;;;;;;19.30;9.80;;;8.30;99.90;;;;;;5022951;28;20041;-78
2021/05/02 03:18:01;;;;;;;26.38;11.38;;;8.30;99.90;;;;;;5013832;28;20026;-78
2021/05/02 03:20:30;;;;;;;17.67;8.57;;;8.30;99.90;;;;;;5020653;28;20050;-77
2021/05/02 03:22:58;;;;;;;28.83;10.40;;;8.30;99.90;;;;;;5022191;28;20107;-77
2021/05/02 03:25:26;;;;;;;22.70;10.23;;;8.30;99.90;;;;;;5017215;28;20030;-78
2021/05/02 03:28:05;;;;;;;19.23;9.07;;;8.30;99.90;;;;;;5021022;28;20504;-77
2021/05/02 03:30:32;;;;;;;20.52;9.48;;;8.30;99.90;;;;;;5013478;28;20046;-77
2021/05/02 03:33:05;;;;;;;24.27;9.20;;;8.30;99.90;;;;;;5014329;28;20512;-77
2021/05/02 03:35:33;;;;;;;19.77;9.32;;;8.30;99.90;;;;;;5026152;28;20029;-77
2021/05/02 03:38:22;;;;;;;24.63;9.60;;;8.20;99.90;;;;;;5013129;28;20361;-77
2021/05/02 03:40:49;;;;;;;23.27;9.73;;;8.30;99.90;;;;;;5029046;28;20018;-77
2021/05/02 03:43:14;;;;;;;20.17;9.10;;;8.20;99.90;;;;;;5017131;28;20063;-78
2021/05/02 03:45:40;;;;;;;29.38;10.55;;;8.20;99.90;;;;;;5025120;28;20033;-77
2021/05/02 03:48:05;;;;;;;26.50;10.25;;;8.20;99.90;;;;;;5019076;28;20036;-77
2021/05/02 03:50:31;;;;;;;21.65;10.30;;;8.20;99.90;;;;;;5025904;28;20107;-77
2021/05/02 03:53:00;;;;;;;20.83;8.88;;;8.30;99.90;;;;;;5016333;28;20034;-77
2021/05/02 03:55:25;;;;;;;29.23;11.15;;;8.20;99.90;;;;;;5027655;28;20042;-77
2021/05/02 03:57:51;;;;;;;25.20;9.90;;;8.20;99.90;;;;;;5024803;28;20109;-77
2021/05/02 04:00:17;;;;;;;27.08;11.15;;;8.20;99.90;;;;;;5016622;28;20026;-77
2021/05/02 04:02:42;;;;;;;21.85;9.30;;;8.20;99.90;;;;;;5018859;28;20030;-77
2021/05/02 04:05:08;;;;;;;29.27;11.70;;;8.30;99.90;;;;;;5023085;28;20048;-78
2021/05/02 04:07:37;;;;;;;23.50;9.77;;;8.30;99.90;;;;;;5027323;28;20038;-78
2021/05/02 04:10:03;;;;;;;23.52;9.88;;;8.30;99.90;;;;;;5013962;28;20029;-78
2021/05/02 04:12:29;;;;;;;28.38;10.82;;;8.30;99.90;;;;;;5023032;28;20056;-78
2021/05/02 04:14:54;;;;;;;27.52;10.80;;;8.40;99.90;;;;;;5015937;28;20052;-77
2021/05/02 04:17:20;;;;;;;27.33;10.63;;;8.30;99.90;;;;;;5014357;28;20032;-77
2021/05/02 04:19:47;;;;;;;22.77;10.85;;;8.40;99.90;;;;;;5021376;28;20034;-78
2021/05/02 04:22:15;;;;;;;28.23;11.15;;;8.40;99.90;;;;;;5021050;28;20030;-78
2021/05/02 04:24:42;;;;;;;22.25;10.57;;;8.40;99.90;;;;;;4999906;28;20402;-77
2021/05/02 04:27:08;;;;;;;24.88;10.35;;;8.50;99.90;;;;;;5013394;28;20026;-77
2021/05/02 04:29:35;;;;;;;24.92;11.65;;;8.40;99.90;;;;;;5016904;28;20478;-78
2021/05/02 04:32:02;;;;;;;21.13;9.52;;;8.40;99.90;;;;;;5024937;28;20030;-77
2021/05/02 04:34:28;;;;;;;20.55;9.40;;;8.50;99.90;;;;;;5022356;28;20034;-77
2021/05/02 04:36:55;;;;;;;21.17;9.82;;;8.50;99.90;;;;;;5022259;28;20456;-77
2021/05/02 04:39:26;;;;;;;21.40;10.25;;;8.50;99.90;;;;;;5014729;28;20473;-77
2021/05/02 04:41:52;;;;;;;27.15;11.32;;;8.50;99.90;;;;;;5016687;28;20073;-77
2021/05/02 04:44:18;;;;;;;32.05;11.00;;;8.60;99.90;;;;;;5017873;28;20435;-77
2021/05/02 04:46:44;;;;;;;19.73;9.52;;;8.60;99.90;;;;;;5028415;28;20065;-77
2021/05/02 04:49:10;;;;;;;31.67;11.35;;;8.60;99.90;;;;;;5021492;28;20476;-77
2021/05/02 04:51:37;;;;;;;25.75;9.90;;;8.60;99.90;;;;;;5022209;28;20050;-77
2021/05/02 04:54:06;;;;;;;23.88;10.15;;;8.70;99.90;;;;;;5025390;28;20045;-77
2021/05/02 04:56:32;;;;;;;23.65;9.85;;;8.70;99.90;;;;;;5012716;28;20026;-77
2021/05/02 04:58:57;;;;;;;20.80;10.38;;;8.70;99.90;;;;;;5026097;28;20523;-77
2021/05/02 05:01:23;;;;;;;19.42;9.43;;;8.60;99.90;;;;;;5017988;28;20153;-76
2021/05/02 05:03:48;;;;;;;21.45;9.65;;;8.70;99.90;;;;;;5025878;28;20546;-77
2021/05/02 05:06:14;;;;;;;26.35;10.73;;;8.80;99.90;;;;;;5026563;28;20474;-77
2021/05/02 05:08:40;;;;;;;23.65;9.82;;;8.80;99.90;;;;;;5026319;28;20038;-77
2021/05/02 05:11:05;;;;;;;22.20;9.23;;;8.90;99.90;;;;;;5025817;28;20033;-77
2021/05/02 05:13:32;;;;;;;19.60;9.75;;;8.90;99.90;;;;;;5027167;28;20507;-77
2021/05/02 05:15:58;;;;;;;24.60;10.45;;;8.90;99.90;;;;;;5017694;28;20038;-77
2021/05/02 05:18:24;;;;;;;21.83;9.00;;;8.90;99.90;;;;;;5016750;28;20108;-77
2021/05/02 05:20:59;;;;;;;26.88;9.82;;;8.90;99.90;;;;;;5017409;28;20108;-77
2021/05/02 05:23:25;;;;;;;18.15;8.45;;;9.00;99.90;;;;;;5017880;28;20038;-77
2021/05/02 05:25:52;;;;;;;24.38;9.95;;;9.10;99.90;;;;;;5029839;28;20080;-77
2021/05/02 05:28:18;;;;;;;20.75;8.93;;;9.10;99.90;;;;;;5027225;28;20037;-77
2021/05/02 05:30:43;;;;;;;22.35;9.57;;;9.00;99.90;;;;;;5020478;28;20038;-77
2021/05/02 05:33:10;;;;;;;21.80;9.35;;;9.00;99.90;;;;;;5024897;28;20030;-77
2021/05/02 05:35:37;;;;;;;22.67;8.82;;;9.00;99.90;;;;;;5024115;28;20036;-77
2021/05/02 05:38:02;;;;;;;22.25;9.10;;;9.00;99.90;;;;;;5008795;28;20538;-77
2021/05/02 05:40:28;;;;;;;17.92;8.23;;;9.10;99.90;;;;;;5024214;28;20033;-77
2021/05/02 05:42:55;;;;;;;17.73;8.65;;;9.10;99.90;;;;;;5017589;28;20084;-77
2021/05/02 05:45:21;;;;;;;21.48;9.43;;;9.10;99.90;;;;;;5012927;28;20040;-77
2021/05/02 05:47:48;;;;;;;22.20;9.82;;;9.20;99.90;;;;;;5019832;28;20116;-78
2021/05/02 05:50:15;;;;;;;20.35;8.50;;;9.20;99.90;;;;;;5023201;28;20511;-77
2021/05/02 05:52:42;;;;;;;17.20;8.13;;;9.20;99.90;;;;;;5021560;28;20033;-77
2021/05/02 05:55:08;;;;;;;19.85;8.68;;;9.20;99.90;;;;;;5020684;28;20049;-77
2021/05/02 05:57:35;;;;;;;27.83;9.68;;;9.30;99.90;;;;;;5027095;28;20369;-77
2021/05/02 06:00:00;;;;;;;17.42;8.80;;;9.30;99.90;;;;;;5018910;28;20029;-76
2021/05/02 06:02:26;;;;;;;22.65;9.38;;;9.30;99.90;;;;;;5029447;28;20531;-76
2021/05/02 06:04:51;;;;;;;19.15;8.70;;;9.40;99.90;;;;;;5025289;28;20484;-77
2021/05/02 06:07:17;;;;;;;18.65;8.20;;;9.30;99.90;;;;;;5022635;28;20029;-78
2021/05/02 06:09:42;;;;;;;16.35;7.95;;;9.30;99.90;;;;;;5017663;28;20076;-77
2021/05/02 06:12:08;;;;;;;22.65;8.90;;;9.30;99.90;;;;;;5022619;28;20029;-77
2021/05/02 06:14:33;;;;;;;21.17;9.25;;;9.30;99.90;;;;;;5023991;28;20075;-77
2021/05/02 06:16:59;;;;;;;18.98;9.18;;;9.30;99.90;;;;;;5030875;28;20025;-77
2021/05/02 06:19:27;;;;;;;17.50;8.93;;;9.40;99.90;;;;;;5021717;28;20029;-77
2021/05/02 06:22:01;;;;;;;19.10;7.85;;;9.40;99.90;;;;;;5021902;28;20121;-78
2021/05/02 06:24:26;;;;;;;18.75;8.05;;;9.50;99.90;;;;;;5013184;28;20049;-78
2021/05/02 06:26:52;;;;;;;22.10;8.88;;;9.60;99.90;;;;;;5021658;28;20456;-78
2021/05/02 06:29:17;;;;;;;18.45;8.40;;;9.70;99.90;;;;;;5013229;28;20125;-77
2021/05/02 06:31:43;;;;;;;18.48;8.82;;;9.60;99.90;;;;;;5018821;28;20041;-77
2021/05/02 06:34:09;;;;;;;16.40;8.40;;;9.70;99.90;;;;;;5016957;28;20425;-77
2021/05/02 06:36:34;;;;;;;18.95;9.00;;;9.70;99.90;;;;;;5017415;28;20030;-78
2021/05/02 06:39:03;;;;;;;18.58;8.45;;;9.60;99.90;;;;;;5013282;28;20045;-80
2021/05/02 06:41:28;;;;;;;15.98;8.52;;;9.70;99.90;;;;;;5000743;28;20032;-79
2021/05/02 06:43:54;;;;;;;17.35;8.43;;;9.80;99.90;;;;;;5018794;28;20021;-79
2021/05/02 06:46:29;;;;;;;18.75;8.70;;;9.80;99.90;;;;;;5015436;28;20071;-80
2021/05/02 06:49:00;;;;;;;17.92;8.10;;;9.80;99.90;;;;;;5011265;28;20042;-78
2021/05/02 06:51:26;;;;;;;15.77;7.63;;;9.90;99.90;;;;;;5013501;28;20050;-79
2021/05/02 06:53:52;;;;;;;15.07;7.18;;;9.80;99.90;;;;;;5018304;28;20668;-77
2021/05/02 06:56:18;;;;;;;21.55;8.27;;;9.90;99.90;;;;;;5018355;28;20483;-77
2021/05/02 06:58:47;;;;;;;19.75;9.15;;;9.90;99.90;;;;;;5018943;28;20689;-81
2021/05/02 07:01:12;;;;;;;15.60;7.70;;;9.90;99.90;;;;;;5022361;28;20118;-80
2021/05/02 07:03:38;;;;;;;18.90;8.68;;;9.90;99.90;;;;;;5023302;28;20530;-80
2021/05/02 07:06:03;;;;;;;16.55;8.48;;;9.90;99.90;;;;;;5014429;28;20109;-81
2021/05/02 07:08:30;;;;;;;19.27;9.43;;;9.90;99.90;;;;;;5022090;28;20040;-84
2021/05/02 07:10:55;;;;;;;14.65;7.57;;;9.90;99.90;;;;;;5021745;28;20495;-81
2021/05/02 07:13:21;;;;;;;17.98;7.93;;;10.00;99.90;;;;;;5024130;28;20025;-79
2021/05/02 07:15:46;;;;;;;18.73;7.93;;;10.00;99.90;;;;;;5011750;28;20033;-79
2021/05/02 07:18:12;;;;;;;15.48;8.10;;;10.00;99.90;;;;;;5024785;28;20021;-82
2021/05/02 07:20:38;;;;;;;16.02;7.22;;;10.00;99.90;;;;;;5018588;28;20196;-83
2021/05/02 07:23:04;;;;;;;20.17;7.80;;;10.10;99.90;;;;;;5021453;28;20054;-83
2021/05/02 07:25:30;;;;;;;19.80;7.72;;;10.10;99.90;;;;;;5016896;28;20034;-79
2021/05/02 07:27:55;;;;;;;17.08;8.25;;;10.20;99.90;;;;;;5027803;28;20083;-79
2021/05/02 07:30:21;;;;;;;15.48;7.90;;;10.20;99.90;;;;;;5017603;28;20018;-79
2021/05/02 07:32:48;;;;;;;18.02;8.27;;;10.20;99.90;;;;;;5025569;28;20030;-80
2021/05/02 07:35:13;;;;;;;18.55;7.60;;;10.40;99.90;;;;;;5020832;28;20125;-79
2021/05/02 07:37:39;;;;;;;16.15;7.65;;;10.50;99.90;;;;;;5025710;28;20129;-81
2021/05/02 07:40:06;;;;;;;15.02;8.13;;;10.60;99.90;;;;;;5027539;28;20030;-79
2021/05/02 07:42:32;;;;;;;18.08;7.20;;;10.60;99.90;;;;;;5012175;28;20104;-80
2021/05/02 07:44:58;;;;;;;20.20;7.60;;;10.70;99.90;;;;;;5028769;28;20105;-84
2021/05/02 07:47:23;;;;;;;15.55;7.88;;;10.70;99.90;;;;;;5025582;28;20022;-83
2021/05/02 07:49:49;;;;;;;14.15;7.80;;;10.70;99.90;;;;;;5009514;28;20036;-84
2021/05/02 07:52:15;;;;;;;16.70;7.38;;;10.70;99.90;;;;;;5015272;28;20435;-81
2021/05/02 07:54:42;;;;;;;13.73;7.43;;;10.70;99.90;;;;;;5022354;28;20068;-80
2021/05/02 07:57:07;;;;;;;16.17;7.55;;;10.80;99.90;;;;;;5011267;28;20026;-80
2021/05/02 07:59:33;;;;;;;13.65;7.00;;;10.70;99.90;;;;;;5019955;28;20032;-81
2021/05/02 08:01:58;;;;;;;15.27;6.95;;;10.80;99.90;;;;;;5012899;28;20439;-81
2021/05/02 08:04:24;;;;;;;19.38;8.35;;;10.80;99.90;;;;;;5025650;28;20144;-82
2021/05/02 08:06:50;;;;;;;15.95;7.38;;;10.80;99.90;;;;;;5001635;28;20044;-86
2021/05/02 08:09:18;;;;;;;17.17;8.07;;;10.70;99.90;;;;;;5022028;28;20029;-85
2021/05/02 08:11:44;;;;;;;12.43;7.18;;;10.80;99.90;;;;;;5016848;28;20049;-86
2021/05/02 08:14:09;;;;;;;18.27;7.65;;;10.70;99.90;;;;;;5011810;28;20038;-81
2021/05/02 08:16:36;;;;;;;16.25;8.43;;;10.60;99.90;;;;;;5015089;28;20041;-80
2021/05/02 08:19:02;;;;;;;14.73;8.05;;;10.50;99.90;;;;;;5010020;28;20615;-85
2021/05/02 08:21:28;;;;;;;19.80;8.95;;;10.50;99.90;;;;;;5014689;28;20030;-86
2021/05/02 08:23:54;;;;;;;19.15;8.30;;;10.50;99.90;;;;;;5030231;28;20032;-83
2021/05/02 08:26:20;;;;;;;20.45;8.50;;;10.50;99.90;;;;;;5018341;28;20021;-81
2021/05/02 08:28:45;;;;;;;16.83;8.45;;;10.40;99.90;;;;;;5017911;28;20388;-82
2021/05/02 08:31:13;;;;;;;17.73;7.85;;;10.50;99.90;;;;;;5027107;28;20038;-76
2021/05/02 08:33:39;;;;;;;19.35;8.70;;;10.50;99.90;;;;;;5022549;28;20044;-76
2021/05/02 08:36:06;;;;;;;14.13;7.40;;;10.50;99.90;;;;;;5024955;28;20443;-78
2021/05/02 08:38:47;;;;;;;17.10;8.88;;;10.60;99.90;;;;;;5017152;28;20503;-84
2021/05/02 08:41:13;;;;;;;18.58;8.88;;;10.70;99.90;;;;;;5015162;28;20026;-80
2021/05/02 08:43:39;;;;;;;20.90;8.70;;;10.90;99.90;;;;;;5012286;28;20040;-80
2021/05/02 08:46:04;;;;;;;16.60;8.38;;;11.00;99.90;;;;;;5021947;28;20158;-80
2021/05/02 08:48:30;;;;;;;16.58;8.55;;;11.00;99.90;;;;;;5025524;28;20040;-81
2021/05/02 08:50:57;;;;;;;17.88;9.10;;;11.10;99.90;;;;;;5029407;28;20124;-81
2021/05/02 08:53:25;;;;;;;16.15;7.97;;;11.20;99.90;;;;;;5013085;28;20058;-82
2021/05/02 08:55:51;;;;;;;15.50;8.20;;;11.20;99.90;;;;;;5014644;28;20384;-78
2021/05/02 08:58:19;;;;;;;17.70;8.52;;;11.30;99.90;;;;;;5024652;28;20484;-84
2021/05/02 09:00:46;;;;;;;20.58;8.45;;;11.30;99.90;;;;;;5015862;28;20092;-81
2021/05/02 09:03:14;;;;;;;18.92;8.68;;;11.20;99.90;;;;;;5012825;28;20034;-80
2021/05/02 09:05:47;;;;;;;18.58;8.55;;;11.20;99.90;;;;;;5015674;28;21097;-83
2021/05/02 09:08:31;;;;;;;20.10;9.35;;;11.10;99.90;;;;;;5016185;28;20038;-79
2021/05/02 09:10:57;;;;;;;19.48;9.48;;;10.90;99.90;;;;;;5018660;28;20026;-79
2021/05/02 09:16:55;;;;;;;16.85;8.68;;;10.90;99.90;;;;;;5019007;28;20063;-77
2021/05/02 09:19:25;;;;;;;18.50;8.75;;;10.80;99.90;;;;;;5011426;28;20026;-78
2021/05/02 09:21:51;;;;;;;18.60;9.15;;;10.80;99.90;;;;;;5013663;28;20026;-78
2021/05/02 09:24:31;;;;;;;16.52;8.35;;;11.00;99.90;;;;;;5024462;28;20037;-79
2021/05/02 09:27:02;;;;;;;22.65;9.10;;;11.10;99.90;;;;;;5020342;28;20571;-80
2021/05/02 09:29:31;;;;;;;15.55;7.50;;;11.10;99.90;;;;;;5020732;28;20038;-78
2021/05/02 09:31:57;;;;;;;14.18;8.00;;;11.10;99.90;;;;;;5023447;28;20136;-80
2021/05/02 09:34:23;;;;;;;18.83;8.15;;;11.10;99.90;;;;;;5020618;28;20033;-77
2021/05/02 09:36:56;;;;;;;13.70;7.70;;;11.10;99.90;;;;;;5014366;28;20026;-78
2021/05/02 09:39:52;;;;;;;17.17;8.45;;;11.10;99.90;;;;;;5014244;28;20511;-79
2021/05/02 09:42:23;;;;;;;21.15;8.45;;;11.20;99.90;;;;;;5024661;28;20048;-79
2021/05/02 09:44:49;;;;;;;15.02;7.03;;;11.30;99.90;;;;;;5012734;28;20033;-78
2021/05/02 09:47:21;;;;;;;16.20;7.45;;;11.40;99.90;;;;;;5017557;28;20064;-81
2021/05/02 09:50:08;;;;;;;13.70;7.72;;;11.40;99.90;;;;;;5022005;28;20030;-85
2021/05/02 09:53:06;;;;;;;19.60;8.30;;;11.50;99.90;;;;;;5014205;28;20033;-83
2021/05/02 09:55:31;;;;;;;15.40;7.88;;;11.60;99.90;;;;;;5020919;28;20117;-75
2021/05/02 09:58:10;;;;;;;16.63;7.53;;;11.70;99.90;;;;;;5013125;28;20099;-75
2021/05/02 10:00:42;;;;;;;18.00;7.97;;;11.80;99.90;;;;;;5022174;28;20388;-75
2021/05/02 10:03:25;;;;;;;15.48;7.00;;;11.90;99.90;;;;;;5027346;28;20111;-75
2021/05/02 10:06:10;;;;;;;14.43;7.13;;;12.10;99.90;;;;;;5024501;28;20487;-75
2021/05/02 10:08:37;;;;;;;14.60;7.25;;;12.10;99.90;;;;;;5019627;28;20036;-73
2021/05/02 10:11:11;;;;;;;11.40;6.35;;;12.20;99.90;;;;;;5020579;28;20507;-75
2021/05/02 10:13:38;;;;;;;15.05;6.88;;;12.30;99.90;;;;;;5026435;28;20161;-75
2021/05/02 10:16:05;;;;;;;20.33;7.28;;;12.20;99.90;;;;;;5027305;28;20541;-76
2021/05/02 10:18:31;;;;;;;13.13;7.55;;;12.40;99.90;;;;;;5015761;28;20038;-75
2021/05/02 10:20:58;;;;;;;13.57;7.45;;;12.50;99.90;;;;;;5014671;28;20029;-76
2021/05/02 10:23:24;;;;;;;18.83;7.65;;;12.60;99.90;;;;;;5017010;28;20037;-76
2021/05/02 10:25:52;;;;;;;14.85;7.15;;;12.70;99.90;;;;;;5019552;28;20032;-76
2021/05/02 10:28:29;;;;;;;11.50;6.00;;;12.80;99.90;;;;;;5024819;28;20022;-76
2021/05/02 10:30:59;;;;;;;12.15;6.63;;;12.90;99.90;;;;;;5023649;28;20191;-76
2021/05/02 10:33:38;;;;;;;18.48;7.47;;;13.00;99.90;;;;;;5015653;28;20032;-76
2021/05/02 10:36:38;;;;;;;12.80;6.85;;;13.00;99.90;;;;;;5015795;28;20079;-80
2021/05/02 10:39:19;;;;;;;14.60;6.55;;;13.00;99.90;;;;;;5015373;28;20021;-80
2021/05/02 10:41:45;;;;;;;18.80;6.95;;;13.00;99.90;;;;;;5018149;28;20033;-80
2021/05/02 10:44:13;;;;;;;12.93;6.53;;;13.00;99.90;;;;;;5019765;28;20665;-79
2021/05/02 10:46:46;;;;;;;13.40;7.05;;;13.00;99.90;;;;;;5015209;28;20396;-79
2021/05/02 10:49:31;;;;;;;15.40;6.78;;;13.00;99.90;;;;;;5015692;28;20025;-80
2021/05/02 10:52:16;;;;;;;12.55;6.93;;;13.00;99.90;;;;;;5003099;28;20112;-79
2021/05/02 10:55:06;;;;;;;13.65;6.60;;;13.10;99.90;;;;;;5017279;28;20026;-80
2021/05/02 10:57:36;;;;;;;13.30;6.47;;;13.20;99.90;;;;;;5010105;28;20112;-79
2021/05/02 11:00:14;;;;;;;16.33;7.68;;;13.20;99.90;;;;;;5014355;28;20036;-79
2021/05/02 11:02:45;;;;;;;12.65;7.22;;;13.10;99.90;;;;;;5010531;28;20044;-79
2021/05/02 11:05:16;;;;;;;11.40;6.15;;;13.00;99.90;;;;;;5024453;28;20033;-79
2021/05/02 11:07:43;;;;;;;15.45;7.43;;;13.00;99.90;;;;;;5015876;28;20022;-79
2021/05/02 11:10:14;;;;;;;14.27;7.03;;;13.00;99.90;;;;;;5019754;28;20029;-80
2021/05/02 11:12:39;;;;;;;14.88;7.20;;;13.10;99.90;;;;;;5020862;28;20026;-80
2021/05/02 11:15:27;;;;;;;14.10;7.05;;;13.10;99.90;;;;;;5016740;28;20035;-79
2021/05/02 11:17:53;;;;;;;11.63;7.13;;;13.00;99.90;;;;;;5021961;28;20032;-80
2021/05/02 11:20:45;;;;;;;13.80;6.78;;;13.00;99.90;;;;;;5016693;28;20033;-80
2021/05/02 11:23:10;;;;;;;10.82;5.72;;;13.00;99.90;;;;;;5023827;28;20108;-80
2021/05/02 11:25:55;;;;;;;17.27;6.53;;;13.10;99.90;;;;;;5015333;28;20459;-79
2021/05/02 11:28:41;;;;;;;11.75;6.47;;;13.20;99.90;;;;;;5020064;28;20034;-80
2021/05/02 11:31:06;;;;;;;11.93;5.82;;;13.20;99.60;;;;;;5025008;28;20052;-79
2021/05/02 11:33:32;;;;;;;13.48;6.40;;;13.10;99.50;;;;;;5018814;28;20488;-80
2021/05/02 11:35:58;;;;;;;22.00;6.97;;;13.10;99.80;;;;;;5022933;28;20389;-81
2021/05/02 11:38:36;;;;;;;15.15;6.63;;;13.10;99.50;;;;;;5019100;28;20033;-80
2021/05/02 11:41:06;;;;;;;12.30;6.72;;;13.10;99.90;;;;;;5013340;28;20037;-80
2021/05/02 11:43:32;;;;;;;11.48;6.15;;;13.00;99.90;;;;;;5013352;28;20032;-80
2021/05/02 11:45:59;;;;;;;12.27;6.30;;;12.90;99.90;;;;;;4995462;28;20037;-80
2021/05/02 11:48:38;;;;;;;14.77;6.95;;;12.80;99.90;;;;;;5017423;28;20033;-79
2021/05/02 11:51:13;;;;;;;15.80;6.05;;;12.70;99.90;;;;;;5020374;28;20515;-81
2021/05/02 11:53:43;;;;;;;16.55;7.05;;;12.70;99.90;;;;;;5018877;28;20533;-80
2021/05/02 11:56:11;;;;;;;12.60;6.50;;;12.60;99.90;;;;;;5019528;28;20029;-80
2021/05/02 11:58:36;;;;;;;13.52;7.22;;;12.50;99.90;;;;;;5013246;28;20412;-80
2021/05/02 12:01:04;;;;;;;14.00;6.10;;;12.50;99.90;;;;;;5027422;28;20029;-80
2021/05/02 12:03:38;;;;;;;13.45;6.75;;;12.50;99.90;;;;;;5018548;28;20088;-79
2021/05/02 12:06:06;;;;;;;12.93;6.53;;;12.60;99.90;;;;;;5020131;28;20120;-80
2021/05/02 12:08:35;;;;;;;15.40;6.65;;;12.70;99.90;;;;;;5025896;28;20040;-79
2021/05/02 12:11:04;;;;;;;12.43;6.60;;;12.80;99.90;;;;;;5022781;28;20033;-78
2021/05/02 12:13:48;;;;;;;12.32;6.13;;;12.90;99.90;;;;;;5023051;28;20513;-80
2021/05/02 12:16:16;;;;;;;12.43;6.80;;;13.00;99.90;;;;;;5022520;28;20021;-80
2021/05/02 12:18:52;;;;;;;10.73;5.90;;;13.10;99.50;;;;;;5019502;28;20025;-80
2021/05/02 12:21:34;;;;;;;9.93;6.07;;;13.30;98.80;;;;;;5023293;28;20025;-80
2021/05/02 12:24:16;;;;;;;11.98;5.90;;;13.30;98.10;;;;;;5019565;28;20057;-83
2021/05/02 12:26:49;;;;;;;11.73;6.57;;;13.40;98.40;;;;;;5020359;28;20087;-80
2021/05/02 12:29:22;;;;;;;13.35;6.28;;;13.50;99.10;;;;;;5022932;28;20060;-77
2021/05/02 12:31:53;;;;;;;11.10;5.80;;;13.50;99.30;;;;;;5025916;28;20029;-82
2021/05/02 12:34:24;;;;;;;16.45;6.88;;;13.60;99.40;;;;;;5019557;28;20030;-80
2021/05/02 12:36:50;;;;;;;;;;;13.70;97.90;;;;;;5024873;28;20037;-81
2021/05/02 12:39:16;;;;;;;13.02;6.72;;;13.80;97.80;;;;;;5020465;28;19921;-79
2021/05/02 12:41:42;;;;;;;13.45;6.32;;;14.00;98.30;;;;;;5023965;28;20476;-78
2021/05/02 12:44:16;;;;;;;15.38;6.75;;;14.00;97.30;;;;;;5017335;28;20528;-80
2021/05/02 12:46:45;;;;;;;10.73;6.30;;;14.00;95.60;;;;;;5023449;28;20034;-79
2021/05/02 12:49:16;;;;;;;11.60;5.50;;;14.10;94.90;;;;;;5025916;28;20045;-80
2021/05/02 12:51:46;;;;;;;15.18;6.30;;;14.20;94.80;;;;;;5018273;28;20053;-79
2021/05/02 12:54:20;;;;;;;15.65;6.00;;;14.20;95.90;;;;;;5023692;28;20120;-78